sensor_id;sensor_type;location;lat;lon;timestamp;temperature;humidity
6538;DHT22;3302;52.508;13.454;2023-02-12T00:01:18;7.20;99.90
6538;DHT22;3302;52.508;13.454;2023-02-12T00:03:44;7.10;99.90
6538;DHT22;3302;52.508;13.454;2023-02-12T00:06:10;7.10;99.90
6538;DHT22;3302;52.508;13.454;2023-02-12T00:08:36;7.10;99.90
6538;DHT22;3302;52.508;13.454;2023-02-12T00:11:10;7.10;99.90
6538;DHT22;3302;52.508;13.454;2023-02-12T00:13:36;7.10;99.90
6538;DHT22;3302;52.508;13.454;2023-02-12T00:16:07;7.10;99.90
6538;DHT22;3302;52.508;13.454;2023-02-12T00:18:33;7.00;99.90
6538;DHT22;3302;52.508;13.454;2023-02-12T00:20:59;7.00;99.90
6538;DHT22;3302;52.508;13.454;2023-02-12T00:23:25;7.10;99.90
6538;DHT22;3302;52.508;13.454;2023-02-12T00:25:51;7.10;99.90
6538;DHT22;3302;52.508;13.454;2023-02-12T00:28:17;7.10;99.90
6538;DHT22;3302;52.508;13.454;2023-02-12T00:30:43;7.10;99.90
6538;DHT22;3302;52.508;13.454;2023-02-12T00:33:09;7.10;99.90
6538;DHT22;3302;52.508;13.454;2023-02-12T00:35:34;7.00;99.90
6538;DHT22;3302;52.508;13.454;2023-02-12T00:38:00;7.00;99.90
6538;DHT22;3302;52.508;13.454;2023-02-12T00:40:26;7.10;99.90
6538;DHT22;3302;52.508;13.454;2023-02-12T00:42:52;7.00;99.90
6538;DHT22;3302;52.508;13.454;2023-02-12T00:45:18;7.00;99.90
6538;DHT22;3302;52.508;13.454;2023-02-12T00:47:43;7.00;99.90
6538;DHT22;3302;52.508;13.454;2023-02-12T00:50:09;6.90;99.90
6538;DHT22;3302;52.508;13.454;2023-02-12T00:52:35;7.00;99.90
6538;DHT22;3302;52.508;13.454;2023-02-12T00:55:01;7.00;99.90
6538;DHT22;3302;52.508;13.454;2023-02-12T00:57:27;7.00;99.90
6538;DHT22;3302;52.508;13.454;2023-02-12T00:59:53;7.00;99.90
6538;DHT22;3302;52.508;13.454;2023-02-12T01:02:19;7.00;99.90
6538;DHT22;3302;52.508;13.454;2023-02-12T01:04:45;7.00;99.90
6538;DHT22;3302;52.508;13.454;2023-02-12T01:07:10;7.00;99.90
6538;DHT22;3302;52.508;13.454;2023-02-12T01:09:36;7.00;99.90
6538;DHT22;3302;52.508;13.454;2023-02-12T01:12:02;7.00;99.90
6538;DHT22;3302;52.508;13.454;2023-02-12T01:14:28;7.00;99.90
6538;DHT22;3302;52.508;13.454;2023-02-12T01:16:54;7.00;99.90
6538;DHT22;3302;52.508;13.454;2023-02-12T01:19:19;7.00;99.90
6538;DHT22;3302;52.508;13.454;2023-02-12T01:21:45;6.90;99.90
6538;DHT22;3302;52.508;13.454;2023-02-12T01:24:11;6.90;99.90
6538;DHT22;3302;52.508;13.454;2023-02-12T01:26:37;7.00;99.90
6538;DHT22;3302;52.508;13.454;2023-02-12T01:29:05;6.90;99.90
6538;DHT22;3302;52.508;13.454;2023-02-12T01:31:35;6.90;99.90
6538;DHT22;3302;52.508;13.454;2023-02-12T01:34:03;6.90;99.90
6538;DHT22;3302;52.508;13.454;2023-02-12T01:36:30;6.90;99.90
6538;DHT22;3302;52.508;13.454;2023-02-12T01:38:56;6.90;99.90
6538;DHT22;3302;52.508;13.454;2023-02-12T01:41:26;7.00;99.90
6538;DHT22;3302;52.508;13.454;2023-02-12T01:44:14;7.00;99.90
6538;DHT22;3302;52.508;13.454;2023-02-12T01:46:42;6.80;99.90
6538;DHT22;3302;52.508;13.454;2023-02-12T01:49:35;6.90;99.90
6538;DHT22;3302;52.508;13.454;2023-02-12T01:52:23;6.90;99.90
6538;DHT22;3302;52.508;13.454;2023-02-12T01:54:51;6.80;99.90
6538;DHT22;3302;52.508;13.454;2023-02-12T01:57:18;6.80;99.90
6538;DHT22;3302;52.508;13.454;2023-02-12T01:59:47;6.80;99.90
6538;DHT22;3302;52.508;13.454;2023-02-12T02:02:16;6.80;99.90
6538;DHT22;3302;52.508;13.454;2023-02-12T02:05:00;6.80;99.90
6538;DHT22;3302;52.508;13.454;2023-02-12T02:07:27;6.80;99.90
6538;DHT22;3302;52.508;13.454;2023-02-12T02:09:54;6.80;99.90
6538;DHT22;3302;52.508;13.454;2023-02-12T02:12:21;6.90;99.90
6538;DHT22;3302;52.508;13.454;2023-02-12T02:15:06;6.90;99.90
6538;DHT22;3302;52.508;13.454;2023-02-12T02:17:46;6.80;99.90
6538;DHT22;3302;52.508;13.454;2023-02-12T02:20:25;6.80;99.90
6538;DHT22;3302;52.508;13.454;2023-02-12T02:29:13;6.80;99.90
6538;DHT22;3302;52.508;13.454;2023-02-12T02:32:05;6.80;99.90
6538;DHT22;3302;52.508;13.454;2023-02-12T02:34:40;6.70;99.90
6538;DHT22;3302;52.508;13.454;2023-02-12T02:37:22;6.70;99.90
6538;DHT22;3302;52.508;13.454;2023-02-12T02:40:03;6.80;99.90
6538;DHT22;3302;52.508;13.454;2023-02-12T02:42:57;6.70;99.90
6538;DHT22;3302;52.508;13.454;2023-02-12T02:45:27;6.70;99.90
6538;DHT22;3302;52.508;13.454;2023-02-12T02:48:09;6.70;99.90
6538;DHT22;3302;52.508;13.454;2023-02-12T02:50:41;6.70;99.90
6538;DHT22;3302;52.508;13.454;2023-02-12T02:53:18;6.70;99.90
6538;DHT22;3302;52.508;13.454;2023-02-12T02:55:51;6.70;99.90
6538;DHT22;3302;52.508;13.454;2023-02-12T02:58:25;6.70;99.90
6538;DHT22;3302;52.508;13.454;2023-02-12T03:01:31;6.60;99.90
6538;DHT22;3302;52.508;13.454;2023-02-12T03:04:09;6.60;99.90
6538;DHT22;3302;52.508;13.454;2023-02-12T03:06:47;6.70;99.90
6538;DHT22;3302;52.508;13.454;2023-02-12T03:09:23;6.60;99.90
6538;DHT22;3302;52.508;13.454;2023-02-12T03:11:55;6.60;99.90
6538;DHT22;3302;52.508;13.454;2023-02-12T03:15:13;6.60;99.90
6538;DHT22;3302;52.508;13.454;2023-02-12T03:17:17;6.60;99.90
6538;DHT22;3302;52.508;13.454;2023-02-12T03:19:50;6.60;99.90
6538;DHT22;3302;52.508;13.454;2023-02-12T03:22:22;6.60;99.90
6538;DHT22;3302;52.508;13.454;2023-02-12T03:25:02;6.70;99.90
6538;DHT22;3302;52.508;13.454;2023-02-12T03:27:38;6.70;99.90
6538;DHT22;3302;52.508;13.454;2023-02-12T03:30:08;6.60;99.90
6538;DHT22;3302;52.508;13.454;2023-02-12T03:35:16;6.50;99.90
6538;DHT22;3302;52.508;13.454;2023-02-12T03:40:45;6.60;99.90
6538;DHT22;3302;52.508;13.454;2023-02-12T03:43:23;6.60;99.90
6538;DHT22;3302;52.508;13.454;2023-02-12T03:49:01;6.70;99.90
6538;DHT22;3302;52.508;13.454;2023-02-12T03:51:36;6.70;99.90
6538;DHT22;3302;52.508;13.454;2023-02-12T03:54:03;6.70;99.90
6538;DHT22;3302;52.508;13.454;2023-02-12T03:59:08;6.60;99.90
6538;DHT22;3302;52.508;13.454;2023-02-12T04:01:34;6.60;99.90
6538;DHT22;3302;52.508;13.454;2023-02-12T04:04:06;6.60;99.90
6538;DHT22;3302;52.508;13.454;2023-02-12T04:06:32;6.50;99.90
6538;DHT22;3302;52.508;13.454;2023-02-12T04:09:02;6.50;99.90
6538;DHT22;3302;52.508;13.454;2023-02-12T04:17:02;6.60;99.90
6538;DHT22;3302;52.508;13.454;2023-02-12T04:22:27;6.50;99.90
6538;DHT22;3302;52.508;13.454;2023-02-12T04:30:33;6.50;99.90
6538;DHT22;3302;52.508;13.454;2023-02-12T04:33:02;6.50;99.90
6538;DHT22;3302;52.508;13.454;2023-02-12T04:35:35;6.50;99.90
6538;DHT22;3302;52.508;13.454;2023-02-12T04:38:25;6.50;99.90
6538;DHT22;3302;52.508;13.454;2023-02-12T04:40:53;6.40;99.90
6538;DHT22;3302;52.508;13.454;2023-02-12T04:43:31;6.40;99.90
6538;DHT22;3302;52.508;13.454;2023-02-12T04:45:59;6.40;99.90
6538;DHT22;3302;52.508;13.454;2023-02-12T04:48:25;6.30;99.90
6538;DHT22;3302;52.508;13.454;2023-02-12T04:50:51;6.30;99.90
6538;DHT22;3302;52.508;13.454;2023-02-12T04:53:17;6.30;99.90
6538;DHT22;3302;52.508;13.454;2023-02-12T04:55:43;6.30;99.90
6538;DHT22;3302;52.508;13.454;2023-02-12T04:58:09;6.40;99.90
6538;DHT22;3302;52.508;13.454;2023-02-12T05:00:35;6.40;99.90
6538;DHT22;3302;52.508;13.454;2023-02-12T05:03:01;6.40;99.90
6538;DHT22;3302;52.508;13.454;2023-02-12T05:05:27;6.40;99.90
6538;DHT22;3302;52.508;13.454;2023-02-12T05:07:53;6.40;99.90
6538;DHT22;3302;52.508;13.454;2023-02-12T05:10:19;6.30;99.90
6538;DHT22;3302;52.508;13.454;2023-02-12T05:12:46;6.30;99.90
6538;DHT22;3302;52.508;13.454;2023-02-12T05:15:11;6.30;99.90
6538;DHT22;3302;52.508;13.454;2023-02-12T05:17:37;6.30;99.90
6538;DHT22;3302;52.508;13.454;2023-02-12T05:20:04;6.40;99.90
6538;DHT22;3302;52.508;13.454;2023-02-12T05:22:30;6.50;99.90
6538;DHT22;3302;52.508;13.454;2023-02-12T05:24:56;6.50;99.90
6538;DHT22;3302;52.508;13.454;2023-02-12T05:27:22;6.50;99.90
6538;DHT22;3302;52.508;13.454;2023-02-12T05:29:47;6.50;99.90
6538;DHT22;3302;52.508;13.454;2023-02-12T05:32:13;6.50;99.90
6538;DHT22;3302;52.508;13.454;2023-02-12T05:34:39;6.50;99.90
6538;DHT22;3302;52.508;13.454;2023-02-12T05:37:05;6.50;99.90
6538;DHT22;3302;52.508;13.454;2023-02-12T05:39:31;6.50;99.90
6538;DHT22;3302;52.508;13.454;2023-02-12T05:41:56;6.50;99.90
6538;DHT22;3302;52.508;13.454;2023-02-12T05:44:22;6.50;99.90
6538;DHT22;3302;52.508;13.454;2023-02-12T05:46:48;6.50;99.90
6538;DHT22;3302;52.508;13.454;2023-02-12T05:49:14;6.50;99.90
6538;DHT22;3302;52.508;13.454;2023-02-12T05:51:39;6.60;99.90
6538;DHT22;3302;52.508;13.454;2023-02-12T05:54:06;6.50;99.90
6538;DHT22;3302;52.508;13.454;2023-02-12T05:56:40;6.60;99.90
6538;DHT22;3302;52.508;13.454;2023-02-12T05:59:10;6.50;99.90
6538;DHT22;3302;52.508;13.454;2023-02-12T06:01:40;6.50;99.90
6538;DHT22;3302;52.508;13.454;2023-02-12T06:04:09;6.50;99.90
6538;DHT22;3302;52.508;13.454;2023-02-12T06:06:37;6.50;99.90
6538;DHT22;3302;52.508;13.454;2023-02-12T06:09:10;6.50;99.90
6538;DHT22;3302;52.508;13.454;2023-02-12T06:11:37;6.50;99.90
6538;DHT22;3302;52.508;13.454;2023-02-12T06:14:05;6.50;99.90
6538;DHT22;3302;52.508;13.454;2023-02-12T06:16:32;6.50;99.90
6538;DHT22;3302;52.508;13.454;2023-02-12T06:18:59;6.50;99.90
6538;DHT22;3302;52.508;13.454;2023-02-12T06:21:26;6.50;99.90
6538;DHT22;3302;52.508;13.454;2023-02-12T06:23:52;6.50;99.90
6538;DHT22;3302;52.508;13.454;2023-02-12T06:26:19;6.50;99.90
6538;DHT22;3302;52.508;13.454;2023-02-12T06:28:45;6.60;99.90
6538;DHT22;3302;52.508;13.454;2023-02-12T06:31:32;6.60;99.90
6538;DHT22;3302;52.508;13.454;2023-02-12T06:34:00;6.60;99.90
6538;DHT22;3302;52.508;13.454;2023-02-12T06:36:27;6.60;99.90
6538;DHT22;3302;52.508;13.454;2023-02-12T06:38:53;6.50;99.90
6538;DHT22;3302;52.508;13.454;2023-02-12T06:41:20;6.50;99.90
6538;DHT22;3302;52.508;13.454;2023-02-12T06:43:46;6.50;99.90
6538;DHT22;3302;52.508;13.454;2023-02-12T06:46:12;6.50;99.90
6538;DHT22;3302;52.508;13.454;2023-02-12T06:48:39;6.50;99.90
6538;DHT22;3302;52.508;13.454;2023-02-12T06:51:14;6.60;99.90
6538;DHT22;3302;52.508;13.454;2023-02-12T06:53:40;6.60;99.90
6538;DHT22;3302;52.508;13.454;2023-02-12T06:56:08;6.60;99.90
6538;DHT22;3302;52.508;13.454;2023-02-12T06:58:36;6.50;99.90
6538;DHT22;3302;52.508;13.454;2023-02-12T07:01:15;6.50;99.90
6538;DHT22;3302;52.508;13.454;2023-02-12T07:03:55;6.50;99.90
6538;DHT22;3302;52.508;13.454;2023-02-12T07:06:22;6.50;99.90
6538;DHT22;3302;52.508;13.454;2023-02-12T07:08:48;6.60;99.90
6538;DHT22;3302;52.508;13.454;2023-02-12T07:11:14;6.60;99.90
6538;DHT22;3302;52.508;13.454;2023-02-12T07:13:41;6.60;99.90
6538;DHT22;3302;52.508;13.454;2023-02-12T07:16:11;6.60;99.90
6538;DHT22;3302;52.508;13.454;2023-02-12T07:18:38;6.60;99.90
6538;DHT22;3302;52.508;13.454;2023-02-12T07:21:05;6.70;99.90
6538;DHT22;3302;52.508;13.454;2023-02-12T07:23:32;6.70;99.90
6538;DHT22;3302;52.508;13.454;2023-02-12T07:26:04;6.70;99.90
6538;DHT22;3302;52.508;13.454;2023-02-12T07:28:30;6.70;99.90
6538;DHT22;3302;52.508;13.454;2023-02-12T07:31:15;6.70;99.90
6538;DHT22;3302;52.508;13.454;2023-02-12T07:33:41;6.70;99.90
6538;DHT22;3302;52.508;13.454;2023-02-12T07:36:10;6.70;99.90
6538;DHT22;3302;52.508;13.454;2023-02-12T07:38:36;6.70;99.90
6538;DHT22;3302;52.508;13.454;2023-02-12T07:41:12;6.80;99.90
6538;DHT22;3302;52.508;13.454;2023-02-12T07:43:39;6.80;99.90
6538;DHT22;3302;52.508;13.454;2023-02-12T07:46:07;6.70;99.90
6538;DHT22;3302;52.508;13.454;2023-02-12T07:48:33;6.70;99.90
6538;DHT22;3302;52.508;13.454;2023-02-12T07:51:07;6.70;99.90
6538;DHT22;3302;52.508;13.454;2023-02-12T07:53:33;6.80;99.90
6538;DHT22;3302;52.508;13.454;2023-02-12T07:56:26;6.80;99.90
6538;DHT22;3302;52.508;13.454;2023-02-12T07:58:59;6.80;99.90
6538;DHT22;3302;52.508;13.454;2023-02-12T08:01:31;6.90;99.90
6538;DHT22;3302;52.508;13.454;2023-02-12T08:04:08;6.80;99.90
6538;DHT22;3302;52.508;13.454;2023-02-12T08:06:37;6.90;99.90
6538;DHT22;3302;52.508;13.454;2023-02-12T08:09:05;6.90;99.90
6538;DHT22;3302;52.508;13.454;2023-02-12T08:11:32;7.00;99.90
6538;DHT22;3302;52.508;13.454;2023-02-12T08:14:00;6.90;99.90
6538;DHT22;3302;52.508;13.454;2023-02-12T08:16:27;7.00;99.90
6538;DHT22;3302;52.508;13.454;2023-02-12T08:18:54;7.00;99.90
6538;DHT22;3302;52.508;13.454;2023-02-12T08:21:22;7.00;99.90
6538;DHT22;3302;52.508;13.454;2023-02-12T08:23:48;7.00;99.90
6538;DHT22;3302;52.508;13.454;2023-02-12T08:26:52;7.10;99.90
6538;DHT22;3302;52.508;13.454;2023-02-12T08:29:16;7.20;99.90
6538;DHT22;3302;52.508;13.454;2023-02-12T08:31:45;7.20;99.90
6538;DHT22;3302;52.508;13.454;2023-02-12T08:34:28;7.20;99.90
6538;DHT22;3302;52.508;13.454;2023-02-12T08:36:54;7.00;99.90
6538;DHT22;3302;52.508;13.454;2023-02-12T08:39:21;7.10;99.90
6538;DHT22;3302;52.508;13.454;2023-02-12T08:41:48;7.00;99.90
6538;DHT22;3302;52.508;13.454;2023-02-12T08:44:14;7.00;99.90
6538;DHT22;3302;52.508;13.454;2023-02-12T08:46:44;7.20;99.90
6538;DHT22;3302;52.508;13.454;2023-02-12T08:49:33;7.20;99.90
6538;DHT22;3302;52.508;13.454;2023-02-12T08:51:59;7.10;99.90
6538;DHT22;3302;52.508;13.454;2023-02-12T08:54:28;7.20;99.90
6538;DHT22;3302;52.508;13.454;2023-02-12T08:56:56;7.20;99.90
6538;DHT22;3302;52.508;13.454;2023-02-12T08:59:23;7.20;99.90
6538;DHT22;3302;52.508;13.454;2023-02-12T09:01:52;7.30;99.90
6538;DHT22;3302;52.508;13.454;2023-02-12T09:04:21;7.30;99.90
6538;DHT22;3302;52.508;13.454;2023-02-12T09:06:48;7.40;99.90
6538;DHT22;3302;52.508;13.454;2023-02-12T09:09:15;7.40;99.90
6538;DHT22;3302;52.508;13.454;2023-02-12T09:11:41;7.40;99.90
6538;DHT22;3302;52.508;13.454;2023-02-12T09:14:11;7.30;99.90
6538;DHT22;3302;52.508;13.454;2023-02-12T09:16:37;7.30;99.90
6538;DHT22;3302;52.508;13.454;2023-02-12T09:19:05;7.20;99.90
6538;DHT22;3302;52.508;13.454;2023-02-12T09:21:31;7.20;99.90
6538;DHT22;3302;52.508;13.454;2023-02-12T09:23:57;7.30;99.90
6538;DHT22;3302;52.508;13.454;2023-02-12T09:26:24;7.40;99.90
6538;DHT22;3302;52.508;13.454;2023-02-12T09:28:53;7.30;99.90
6538;DHT22;3302;52.508;13.454;2023-02-12T09:31:25;7.30;99.90
6538;DHT22;3302;52.508;13.454;2023-02-12T09:33:52;7.40;99.90
6538;DHT22;3302;52.508;13.454;2023-02-12T09:36:19;7.40;99.90
6538;DHT22;3302;52.508;13.454;2023-02-12T09:38:45;7.40;99.90
6538;DHT22;3302;52.508;13.454;2023-02-12T09:46:32;7.40;99.90
6538;DHT22;3302;52.508;13.454;2023-02-12T09:51:45;7.50;99.90
6538;DHT22;3302;52.508;13.454;2023-02-12T09:54:21;7.60;99.90
6538;DHT22;3302;52.508;13.454;2023-02-12T09:56:54;7.70;99.90
6538;DHT22;3302;52.508;13.454;2023-02-12T09:59:38;7.60;99.90
6538;DHT22;3302;52.508;13.454;2023-02-12T10:02:18;7.70;99.90
6538;DHT22;3302;52.508;13.454;2023-02-12T10:04:46;7.70;99.90
6538;DHT22;3302;52.508;13.454;2023-02-12T10:10:07;7.70;99.90
6538;DHT22;3302;52.508;13.454;2023-02-12T10:13:15;7.60;99.90
6538;DHT22;3302;52.508;13.454;2023-02-12T10:21:18;7.60;99.90
6538;DHT22;3302;52.508;13.454;2023-02-12T10:26:46;7.70;99.90
6538;DHT22;3302;52.508;13.454;2023-02-12T10:29:28;7.70;99.90
6538;DHT22;3302;52.508;13.454;2023-02-12T10:32:29;7.70;99.90
6538;DHT22;3302;52.508;13.454;2023-02-12T10:34:58;7.70;99.90
6538;DHT22;3302;52.508;13.454;2023-02-12T10:37:36;7.90;99.90
6538;DHT22;3302;52.508;13.454;2023-02-12T10:40:23;7.90;99.90
6538;DHT22;3302;52.508;13.454;2023-02-12T10:42:51;7.80;99.90
6538;DHT22;3302;52.508;13.454;2023-02-12T10:45:21;7.70;99.90
6538;DHT22;3302;52.508;13.454;2023-02-12T10:47:51;7.80;99.90
6538;DHT22;3302;52.508;13.454;2023-02-12T10:50:46;7.90;99.90
6538;DHT22;3302;52.508;13.454;2023-02-12T10:53:24;7.90;99.90
6538;DHT22;3302;52.508;13.454;2023-02-12T10:58:40;7.80;99.90
6538;DHT22;3302;52.508;13.454;2023-02-12T11:03:43;7.80;99.90
6538;DHT22;3302;52.508;13.454;2023-02-12T11:06:21;7.80;99.90
6538;DHT22;3302;52.508;13.454;2023-02-12T11:08:47;7.60;99.90
6538;DHT22;3302;52.508;13.454;2023-02-12T11:11:18;7.60;99.90
6538;DHT22;3302;52.508;13.454;2023-02-12T11:14:03;7.60;99.90
6538;DHT22;3302;52.508;13.454;2023-02-12T11:16:35;7.70;99.90
6538;DHT22;3302;52.508;13.454;2023-02-12T11:19:04;7.70;99.90
6538;DHT22;3302;52.508;13.454;2023-02-12T11:21:31;7.70;99.90
6538;DHT22;3302;52.508;13.454;2023-02-12T11:24:21;7.80;99.90
6538;DHT22;3302;52.508;13.454;2023-02-12T11:26:47;7.70;99.90
6538;DHT22;3302;52.508;13.454;2023-02-12T11:29:19;7.70;99.90
6538;DHT22;3302;52.508;13.454;2023-02-12T11:32:00;7.70;99.90
6538;DHT22;3302;52.508;13.454;2023-02-12T11:34:26;7.50;99.90
6538;DHT22;3302;52.508;13.454;2023-02-12T11:36:52;7.60;99.90
6538;DHT22;3302;52.508;13.454;2023-02-12T11:39:33;7.50;99.90
6538;DHT22;3302;52.508;13.454;2023-02-12T11:42:02;7.50;99.90
6538;DHT22;3302;52.508;13.454;2023-02-12T11:44:36;7.60;99.90
6538;DHT22;3302;52.508;13.454;2023-02-12T11:47:06;7.60;99.90
6538;DHT22;3302;52.508;13.454;2023-02-12T11:49:38;7.60;99.90
6538;DHT22;3302;52.508;13.454;2023-02-12T11:52:06;7.70;99.90
6538;DHT22;3302;52.508;13.454;2023-02-12T11:54:41;7.90;99.90
6538;DHT22;3302;52.508;13.454;2023-02-12T11:57:33;7.80;99.90
6538;DHT22;3302;52.508;13.454;2023-02-12T12:00:01;7.80;99.90
6538;DHT22;3302;52.508;13.454;2023-02-12T12:02:31;7.70;99.90
6538;DHT22;3302;52.508;13.454;2023-02-12T12:05:14;7.80;99.90
6538;DHT22;3302;52.508;13.454;2023-02-12T12:07:45;7.70;99.90
6538;DHT22;3302;52.508;13.454;2023-02-12T12:10:37;7.70;99.90
6538;DHT22;3302;52.508;13.454;2023-02-12T12:13:21;7.60;99.90
6538;DHT22;3302;52.508;13.454;2023-02-12T12:16:03;7.60;99.90
6538;DHT22;3302;52.508;13.454;2023-02-12T12:18:58;7.60;99.90
6538;DHT22;3302;52.508;13.454;2023-02-12T12:22:02;7.60;99.90
6538;DHT22;3302;52.508;13.454;2023-02-12T12:24:45;7.70;99.90
6538;DHT22;3302;52.508;13.454;2023-02-12T12:27:19;7.70;99.90
6538;DHT22;3302;52.508;13.454;2023-02-12T12:30:18;7.80;99.90
6538;DHT22;3302;52.508;13.454;2023-02-12T12:32:46;7.70;99.90
6538;DHT22;3302;52.508;13.454;2023-02-12T12:35:17;7.70;99.90
6538;DHT22;3302;52.508;13.454;2023-02-12T12:47:12;7.80;99.90
6538;DHT22;3302;52.508;13.454;2023-02-12T12:49:50;7.70;99.90
6538;DHT22;3302;52.508;13.454;2023-02-12T13:00:54;7.80;99.90
6538;DHT22;3302;52.508;13.454;2023-02-12T13:04:28;7.80;99.90
6538;DHT22;3302;52.508;13.454;2023-02-12T13:09:37;7.90;99.90
6538;DHT22;3302;52.508;13.454;2023-02-12T13:17:31;8.00;99.90
6538;DHT22;3302;52.508;13.454;2023-02-12T13:20:17;8.20;99.90
6538;DHT22;3302;52.508;13.454;2023-02-12T13:22:56;8.20;99.90
6538;DHT22;3302;52.508;13.454;2023-02-12T13:25:26;8.10;99.90
6538;DHT22;3302;52.508;13.454;2023-02-12T13:27:55;8.10;99.90
6538;DHT22;3302;52.508;13.454;2023-02-12T13:30:37;8.10;99.90
6538;DHT22;3302;52.508;13.454;2023-02-12T13:33:21;8.20;99.90
6538;DHT22;3302;52.508;13.454;2023-02-12T13:35:51;8.20;99.90
6538;DHT22;3302;52.508;13.454;2023-02-12T13:38:26;8.20;99.90
6538;DHT22;3302;52.508;13.454;2023-02-12T13:40:57;8.40;99.90
6538;DHT22;3302;52.508;13.454;2023-02-12T13:43:53;8.40;99.90
6538;DHT22;3302;52.508;13.454;2023-02-12T13:52:09;8.60;99.90
6538;DHT22;3302;52.508;13.454;2023-02-12T13:55:03;8.60;99.90
6538;DHT22;3302;52.508;13.454;2023-02-12T13:57:34;8.60;99.90
6538;DHT22;3302;52.508;13.454;2023-02-12T14:00:00;8.70;99.90
6538;DHT22;3302;52.508;13.454;2023-02-12T14:02:27;8.70;99.90
6538;DHT22;3302;52.508;13.454;2023-02-12T14:04:54;8.60;99.90
6538;DHT22;3302;52.508;13.454;2023-02-12T14:07:21;8.70;99.90
6538;DHT22;3302;52.508;13.454;2023-02-12T14:15:09;8.70;99.90
6538;DHT22;3302;52.508;13.454;2023-02-12T14:17:55;8.70;99.90
6538;DHT22;3302;52.508;13.454;2023-02-12T14:20:25;8.70;99.90
6538;DHT22;3302;52.508;13.454;2023-02-12T14:26:04;8.70;99.90
6538;DHT22;3302;52.508;13.454;2023-02-12T14:33:50;8.80;99.90
6538;DHT22;3302;52.508;13.454;2023-02-12T14:41:48;8.80;99.90
6538;DHT22;3302;52.508;13.454;2023-02-12T14:46:52;8.80;99.90
6538;DHT22;3302;52.508;13.454;2023-02-12T14:49:33;8.80;99.90
6538;DHT22;3302;52.508;13.454;2023-02-12T14:54:51;8.80;99.90
6538;DHT22;3302;52.508;13.454;2023-02-12T14:57:32;8.80;99.90
6538;DHT22;3302;52.508;13.454;2023-02-12T15:00:12;8.80;99.90
6538;DHT22;3302;52.508;13.454;2023-02-12T15:02:53;8.80;99.90
6538;DHT22;3302;52.508;13.454;2023-02-12T15:07:56;8.80;99.90
6538;DHT22;3302;52.508;13.454;2023-02-12T15:10:37;8.80;99.90
6538;DHT22;3302;52.508;13.454;2023-02-12T15:16:03;8.80;99.90
6538;DHT22;3302;52.508;13.454;2023-02-12T15:18:44;8.90;99.90
6538;DHT22;3302;52.508;13.454;2023-02-12T15:24:05;8.90;99.90
6538;DHT22;3302;52.508;13.454;2023-02-12T15:26:44;8.90;99.90
6538;DHT22;3302;52.508;13.454;2023-02-12T15:31:56;8.80;99.90
6538;DHT22;3302;52.508;13.454;2023-02-12T15:34:27;8.80;99.90
6538;DHT22;3302;52.508;13.454;2023-02-12T15:37:04;8.80;99.90
6538;DHT22;3302;52.508;13.454;2023-02-12T15:39:43;8.80;99.90
6538;DHT22;3302;52.508;13.454;2023-02-12T15:42:51;8.80;99.90
6538;DHT22;3302;52.508;13.454;2023-02-12T15:45:20;8.80;99.90
6538;DHT22;3302;52.508;13.454;2023-02-12T15:50:28;8.80;99.90
6538;DHT22;3302;52.508;13.454;2023-02-12T15:52:54;8.80;99.90
6538;DHT22;3302;52.508;13.454;2023-02-12T15:55:26;8.80;99.90
6538;DHT22;3302;52.508;13.454;2023-02-12T15:57:59;8.80;99.90
6538;DHT22;3302;52.508;13.454;2023-02-12T16:00:43;8.80;99.90
6538;DHT22;3302;52.508;13.454;2023-02-12T16:03:23;8.80;99.90
6538;DHT22;3302;52.508;13.454;2023-02-12T16:05:50;8.70;99.90
6538;DHT22;3302;52.508;13.454;2023-02-12T16:08:19;8.70;99.90
6538;DHT22;3302;52.508;13.454;2023-02-12T16:10:47;8.70;99.90
6538;DHT22;3302;52.508;13.454;2023-02-12T16:13:20;8.70;99.90
6538;DHT22;3302;52.508;13.454;2023-02-12T16:16:11;8.70;99.90
6538;DHT22;3302;52.508;13.454;2023-02-12T16:18:41;8.70;99.90
6538;DHT22;3302;52.508;13.454;2023-02-12T16:21:20;8.70;99.90
6538;DHT22;3302;52.508;13.454;2023-02-12T16:23:49;8.70;99.90
6538;DHT22;3302;52.508;13.454;2023-02-12T16:26:21;8.70;99.90
6538;DHT22;3302;52.508;13.454;2023-02-12T16:28:53;8.70;99.90
6538;DHT22;3302;52.508;13.454;2023-02-12T16:31:20;8.70;99.90
6538;DHT22;3302;52.508;13.454;2023-02-12T16:33:51;8.70;99.90
6538;DHT22;3302;52.508;13.454;2023-02-12T16:43:43;8.60;99.90
6538;DHT22;3302;52.508;13.454;2023-02-12T16:46:10;8.60;99.90
6538;DHT22;3302;52.508;13.454;2023-02-12T16:52:38;8.60;99.90
6538;DHT22;3302;52.508;13.454;2023-02-12T16:55:26;8.60;99.90
6538;DHT22;3302;52.508;13.454;2023-02-12T16:57:51;8.60;99.90
6538;DHT22;3302;52.508;13.454;2023-02-12T17:00:17;8.60;99.90
6538;DHT22;3302;52.508;13.454;2023-02-12T17:02:43;8.60;99.90
6538;DHT22;3302;52.508;13.454;2023-02-12T17:05:13;8.60;99.90
6538;DHT22;3302;52.508;13.454;2023-02-12T17:07:41;8.50;99.90
6538;DHT22;3302;52.508;13.454;2023-02-12T17:10:12;8.50;99.90
6538;DHT22;3302;52.508;13.454;2023-02-12T17:12:45;8.50;99.90
6538;DHT22;3302;52.508;13.454;2023-02-12T17:15:27;8.50;99.90
6538;DHT22;3302;52.508;13.454;2023-02-12T17:17:54;8.50;99.90
6538;DHT22;3302;52.508;13.454;2023-02-12T17:20:20;8.50;99.90
6538;DHT22;3302;52.508;13.454;2023-02-12T17:22:49;8.50;99.90
6538;DHT22;3302;52.508;13.454;2023-02-12T17:25:16;8.50;99.90
6538;DHT22;3302;52.508;13.454;2023-02-12T17:27:42;8.50;99.90
6538;DHT22;3302;52.508;13.454;2023-02-12T17:30:13;8.50;99.90
6538;DHT22;3302;52.508;13.454;2023-02-12T17:32:39;8.50;99.90
6538;DHT22;3302;52.508;13.454;2023-02-12T17:35:05;8.50;99.90
6538;DHT22;3302;52.508;13.454;2023-02-12T17:37:31;8.50;99.90
6538;DHT22;3302;52.508;13.454;2023-02-12T17:39:57;8.50;99.90
6538;DHT22;3302;52.508;13.454;2023-02-12T17:42:23;8.50;99.90
6538;DHT22;3302;52.508;13.454;2023-02-12T17:44:48;8.50;99.90
6538;DHT22;3302;52.508;13.454;2023-02-12T17:47:14;8.40;99.90
6538;DHT22;3302;52.508;13.454;2023-02-12T17:49:40;8.30;99.90
6538;DHT22;3302;52.508;13.454;2023-02-12T17:52:06;8.20;99.90
6538;DHT22;3302;52.508;13.454;2023-02-12T17:54:32;8.20;99.90
6538;DHT22;3302;52.508;13.454;2023-02-12T17:56:58;8.30;99.90
6538;DHT22;3302;52.508;13.454;2023-02-12T17:59:23;8.20;99.90
6538;DHT22;3302;52.508;13.454;2023-02-12T18:01:49;8.30;99.90
6538;DHT22;3302;52.508;13.454;2023-02-12T18:04:15;8.30;99.90
6538;DHT22;3302;52.508;13.454;2023-02-12T18:06:41;8.30;99.90
6538;DHT22;3302;52.508;13.454;2023-02-12T18:09:06;8.30;99.90
6538;DHT22;3302;52.508;13.454;2023-02-12T18:11:32;8.20;99.90
6538;DHT22;3302;52.508;13.454;2023-02-12T18:13:59;8.30;99.90
6538;DHT22;3302;52.508;13.454;2023-02-12T18:16:27;8.20;99.90
6538;DHT22;3302;52.508;13.454;2023-02-12T18:18:54;8.20;99.90
6538;DHT22;3302;52.508;13.454;2023-02-12T18:21:20;8.10;99.90
6538;DHT22;3302;52.508;13.454;2023-02-12T18:23:46;8.00;99.90
6538;DHT22;3302;52.508;13.454;2023-02-12T18:26:14;8.10;99.90
6538;DHT22;3302;52.508;13.454;2023-02-12T18:28:40;8.00;99.90
6538;DHT22;3302;52.508;13.454;2023-02-12T18:31:07;8.10;99.90
6538;DHT22;3302;52.508;13.454;2023-02-12T18:33:33;8.10;99.90
6538;DHT22;3302;52.508;13.454;2023-02-12T18:36:01;8.00;99.90
6538;DHT22;3302;52.508;13.454;2023-02-12T18:38:28;8.00;99.90
6538;DHT22;3302;52.508;13.454;2023-02-12T18:40:55;8.00;99.90
6538;DHT22;3302;52.508;13.454;2023-02-12T18:43:21;8.10;99.90
6538;DHT22;3302;52.508;13.454;2023-02-12T18:45:47;8.00;99.90
6538;DHT22;3302;52.508;13.454;2023-02-12T18:48:13;8.00;99.90